sensor_id;sensor_type;location;lat;lon;timestamp;pressure;altitude;pressure_sealevel;temperature;humidity
65718;BME280;52445;52.466;-1.016;2023-05-09T00:01:22;99899.34;;;14.44;76.20
65718;BME280;52445;52.466;-1.016;2023-05-09T00:03:49;99903.72;;;14.43;76.38
65718;BME280;52445;52.466;-1.016;2023-05-09T00:06:17;99906.38;;;14.42;76.17
65718;BME280;52445;52.466;-1.016;2023-05-09T00:08:45;99909.84;;;14.40;76.14
65718;BME280;52445;52.466;-1.016;2023-05-09T00:11:11;99905.53;;;14.39;76.61
65718;BME280;52445;52.466;-1.016;2023-05-09T00:13:38;99908.13;;;14.39;76.23
65718;BME280;52445;52.466;-1.016;2023-05-09T00:16:05;99910.72;;;14.39;76.63
65718;BME280;52445;52.466;-1.016;2023-05-09T00:18:31;99902.91;;;14.39;76.12
65718;BME280;52445;52.466;-1.016;2023-05-09T00:20:59;99904.72;;;14.37;76.46
65718;BME280;52445;52.466;-1.016;2023-05-09T00:23:29;99901.22;;;14.38;76.40
65718;BME280;52445;52.466;-1.016;2023-05-09T00:25:57;99896.94;;;14.36;76.30
65718;BME280;52445;52.466;-1.016;2023-05-09T00:28:23;99897.84;;;14.33;76.57
65718;BME280;52445;52.466;-1.016;2023-05-09T00:30:50;99896.97;;;14.33;76.33
65718;BME280;52445;52.466;-1.016;2023-05-09T00:33:16;99887.50;;;14.30;76.33
65718;BME280;52445;52.466;-1.016;2023-05-09T00:35:43;99886.63;;;14.30;76.34
65718;BME280;52445;52.466;-1.016;2023-05-09T00:38:10;99886.63;;;14.30;76.72
65718;BME280;52445;52.466;-1.016;2023-05-09T00:40:37;99886.63;;;14.30;77.13
65718;BME280;52445;52.466;-1.016;2023-05-09T00:43:04;99878.81;;;14.30;76.40
65718;BME280;52445;52.466;-1.016;2023-05-09T00:45:30;99874.47;;;14.30;76.17
65718;BME280;52445;52.466;-1.016;2023-05-09T00:47:57;99871.84;;;14.30;77.06
65718;BME280;52445;52.466;-1.016;2023-05-09T00:50:24;99863.16;;;14.31;77.19
65718;BME280;52445;52.466;-1.016;2023-05-09T00:52:50;99856.19;;;14.32;76.70
65718;BME280;52445;52.466;-1.016;2023-05-09T00:55:17;99858.81;;;14.32;76.91
65718;BME280;52445;52.466;-1.016;2023-05-09T00:57:44;99849.22;;;14.32;76.89
65718;BME280;52445;52.466;-1.016;2023-05-09T01:00:11;99856.16;;;14.33;76.57
65718;BME280;52445;52.466;-1.016;2023-05-09T01:02:41;99852.66;;;14.34;76.59
65718;BME280;52445;52.466;-1.016;2023-05-09T01:05:08;99844.88;;;14.33;76.76
65718;BME280;52445;52.466;-1.016;2023-05-09T01:07:42;99842.28;;;14.33;76.85
65718;BME280;52445;52.466;-1.016;2023-05-09T01:13:02;99838.94;;;14.65;76.62
65718;BME280;52445;52.466;-1.016;2023-05-09T01:18:22;99837.03;;;14.34;77.58
65718;BME280;52445;52.466;-1.016;2023-05-09T01:20:56;99834.41;;;14.36;77.33
65718;BME280;52445;52.466;-1.016;2023-05-09T01:31:55;99824.97;;;14.30;77.29
65718;BME280;52445;52.466;-1.016;2023-05-09T01:34:25;99823.25;;;14.29;77.29
65718;BME280;52445;52.466;-1.016;2023-05-09T01:36:55;99822.41;;;14.29;76.94
65718;BME280;52445;52.466;-1.016;2023-05-09T01:39:24;99819.81;;;14.27;77.19
65718;BME280;52445;52.466;-1.016;2023-05-09T01:41:54;99825.88;;;14.29;77.40
65718;BME280;52445;52.466;-1.016;2023-05-09T01:44:22;99823.25;;;14.29;77.07
65718;BME280;52445;52.466;-1.016;2023-05-09T01:46:53;99819.75;;;14.30;76.92
65718;BME280;52445;52.466;-1.016;2023-05-09T01:49:21;99812.84;;;14.29;77.10
65718;BME280;52445;52.466;-1.016;2023-05-09T01:51:49;99811.09;;;14.28;77.06
65718;BME280;52445;52.466;-1.016;2023-05-09T01:54:17;99805.91;;;14.28;77.19
65718;BME280;52445;52.466;-1.016;2023-05-09T01:56:45;99804.19;;;14.27;76.55
65718;BME280;52445;52.466;-1.016;2023-05-09T01:59:13;99802.47;;;14.26;77.27
65718;BME280;52445;52.466;-1.016;2023-05-09T02:01:42;99799.88;;;14.26;77.21
65718;BME280;52445;52.466;-1.016;2023-05-09T02:04:12;99805.09;;;14.26;77.12
65718;BME280;52445;52.466;-1.016;2023-05-09T02:06:42;99805.16;;;14.23;77.50
65718;BME280;52445;52.466;-1.016;2023-05-09T02:09:10;99800.84;;;14.22;76.92
65718;BME280;52445;52.466;-1.016;2023-05-09T02:11:38;99800.00;;;14.20;77.13
65718;BME280;52445;52.466;-1.016;2023-05-09T02:14:04;99794.84;;;14.17;76.94
65718;BME280;52445;52.466;-1.016;2023-05-09T02:16:31;99792.34;;;14.13;76.65
65718;BME280;52445;52.466;-1.016;2023-05-09T02:18:58;99793.25;;;14.11;77.01
65718;BME280;52445;52.466;-1.016;2023-05-09T02:21:25;99794.16;;;14.08;77.52
65718;BME280;52445;52.466;-1.016;2023-05-09T02:23:54;99790.72;;;14.08;76.94
65718;BME280;52445;52.466;-1.016;2023-05-09T02:26:21;99786.38;;;14.07;77.22
65718;BME280;52445;52.466;-1.016;2023-05-09T02:28:48;99788.22;;;14.03;77.78
65718;BME280;52445;52.466;-1.016;2023-05-09T02:31:15;99789.97;;;14.01;77.28
65718;BME280;52445;52.466;-1.016;2023-05-09T02:33:44;99796.06;;;14.00;77.86
65718;BME280;52445;52.466;-1.016;2023-05-09T02:36:13;99794.38;;;13.99;77.62
65718;BME280;52445;52.466;-1.016;2023-05-09T02:38:40;99781.38;;;13.97;77.29
65718;BME280;52445;52.466;-1.016;2023-05-09T02:41:12;99783.19;;;13.94;76.90
65718;BME280;52445;52.466;-1.016;2023-05-09T02:43:38;99775.47;;;13.91;77.06
65718;BME280;52445;52.466;-1.016;2023-05-09T02:46:06;99774.66;;;13.87;76.85
65718;BME280;52445;52.466;-1.016;2023-05-09T02:48:33;99766.06;;;13.83;77.83
65718;BME280;52445;52.466;-1.016;2023-05-09T02:51:00;99760.94;;;13.79;77.22
65718;BME280;52445;52.466;-1.016;2023-05-09T02:53:27;99761.00;;;13.75;76.87
65718;BME280;52445;52.466;-1.016;2023-05-09T02:55:54;99753.34;;;13.69;77.49
65718;BME280;52445;52.466;-1.016;2023-05-09T02:58:20;99755.13;;;13.66;77.44
65718;BME280;52445;52.466;-1.016;2023-05-09T03:00:47;99750.88;;;13.61;77.96
65718;BME280;52445;52.466;-1.016;2023-05-09T03:03:14;99750.06;;;13.59;77.60
65718;BME280;52445;52.466;-1.016;2023-05-09T03:05:43;99749.25;;;13.56;77.11
65718;BME280;52445;52.466;-1.016;2023-05-09T03:08:09;99750.19;;;13.52;77.06
65718;BME280;52445;52.466;-1.016;2023-05-09T03:10:36;99752.84;;;13.48;77.42
65718;BME280;52445;52.466;-1.016;2023-05-09T03:13:03;99752.03;;;13.45;77.63
65718;BME280;52445;52.466;-1.016;2023-05-09T03:15:29;99752.09;;;13.42;77.02
65718;BME280;52445;52.466;-1.016;2023-05-09T03:17:56;99752.13;;;13.39;77.50
65718;BME280;52445;52.466;-1.016;2023-05-09T03:20:24;99752.19;;;13.35;76.92
65718;BME280;52445;52.466;-1.016;2023-05-09T03:22:51;99765.25;;;13.34;76.96
65718;BME280;52445;52.466;-1.016;2023-05-09T03:25:18;99760.09;;;13.31;77.63
65718;BME280;52445;52.466;-1.016;2023-05-09T03:27:44;99754.94;;;13.29;77.09
65718;BME280;52445;52.466;-1.016;2023-05-09T03:30:11;99759.28;;;13.27;76.97
65718;BME280;52445;52.466;-1.016;2023-05-09T03:32:38;99751.53;;;13.24;77.14
65718;BME280;52445;52.466;-1.016;2023-05-09T03:35:05;99762.00;;;13.22;77.62
65718;BME280;52445;52.466;-1.016;2023-05-09T03:37:32;99745.56;;;13.19;77.78
65718;BME280;52445;52.466;-1.016;2023-05-09T03:39:58;99752.56;;;13.17;77.42
65718;BME280;52445;52.466;-1.016;2023-05-09T03:42:25;99750.91;;;13.13;77.06
65718;BME280;52445;52.466;-1.016;2023-05-09T03:44:51;99749.22;;;13.08;77.06
65718;BME280;52445;52.466;-1.016;2023-05-09T03:47:18;99745.81;;;13.06;77.15
65718;BME280;52445;52.466;-1.016;2023-05-09T03:49:45;99747.53;;;13.06;77.72
65718;BME280;52445;52.466;-1.016;2023-05-09T03:52:11;99748.44;;;13.03;77.28
65718;BME280;52445;52.466;-1.016;2023-05-09T03:54:38;99750.25;;;13.01;76.97
65718;BME280;52445;52.466;-1.016;2023-05-09T03:57:04;99752.88;;;12.98;77.38
65718;BME280;52445;52.466;-1.016;2023-05-09T03:59:32;99754.63;;;12.96;78.12
65718;BME280;52445;52.466;-1.016;2023-05-09T04:01:58;99752.06;;;12.94;76.92
65718;BME280;52445;52.466;-1.016;2023-05-09T04:04:26;99746.88;;;12.93;77.04
65718;BME280;52445;52.466;-1.016;2023-05-09T04:06:53;99742.59;;;12.92;77.84
65718;BME280;52445;52.466;-1.016;2023-05-09T04:09:20;99739.97;;;12.92;77.33
65718;BME280;52445;52.466;-1.016;2023-05-09T04:11:46;99737.34;;;12.93;77.14
65718;BME280;52445;52.466;-1.016;2023-05-09T04:14:13;99735.63;;;12.94;77.46
65718;BME280;52445;52.466;-1.016;2023-05-09T04:16:40;99736.47;;;12.94;77.63
65718;BME280;52445;52.466;-1.016;2023-05-09T04:19:07;99732.13;;;12.95;78.46
65718;BME280;52445;52.466;-1.016;2023-05-09T04:21:34;99734.72;;;12.96;78.27
65718;BME280;52445;52.466;-1.016;2023-05-09T04:24:00;99732.94;;;12.98;77.14
65718;BME280;52445;52.466;-1.016;2023-05-09T04:26:27;99732.91;;;13.00;77.63
65718;BME280;52445;52.466;-1.016;2023-05-09T04:28:55;99726.84;;;13.01;78.40
65718;BME280;52445;52.466;-1.016;2023-05-09T04:31:21;99721.63;;;13.01;77.97
65718;BME280;52445;52.466;-1.016;2023-05-09T04:33:48;99716.44;;;13.01;77.24
65718;BME280;52445;52.466;-1.016;2023-05-09T04:36:15;99719.91;;;13.00;78.02
65718;BME280;52445;52.466;-1.016;2023-05-09T04:38:42;99707.00;;;12.95;77.87
65718;BME280;52445;52.466;-1.016;2023-05-09T04:41:08;99710.47;;;12.94;78.20
65718;BME280;52445;52.466;-1.016;2023-05-09T04:43:35;99707.91;;;12.93;78.41
65718;BME280;52445;52.466;-1.016;2023-05-09T04:46:02;99704.47;;;12.92;78.23
65718;BME280;52445;52.466;-1.016;2023-05-09T04:48:28;99713.16;;;12.91;78.07
65718;BME280;52445;52.466;-1.016;2023-05-09T04:50:55;99711.38;;;12.92;78.32
65718;BME280;52445;52.466;-1.016;2023-05-09T04:53:21;99714.88;;;12.91;77.62
65718;BME280;52445;52.466;-1.016;2023-05-09T04:55:48;99707.91;;;12.93;77.62
65718;BME280;52445;52.466;-1.016;2023-05-09T04:58:15;99706.16;;;12.95;78.30
65718;BME280;52445;52.466;-1.016;2023-05-09T05:00:41;99709.59;;;12.97;78.50
65718;BME280;52445;52.466;-1.016;2023-05-09T05:03:08;99707.78;;;13.01;78.10
65718;BME280;52445;52.466;-1.016;2023-05-09T05:05:35;99707.69;;;13.05;77.44
65718;BME280;52445;52.466;-1.016;2023-05-09T05:08:03;99704.16;;;13.09;77.55
65718;BME280;52445;52.466;-1.016;2023-05-09T05:10:29;99703.22;;;13.14;77.74
65718;BME280;52445;52.466;-1.016;2023-05-09T05:12:56;99697.97;;;13.17;78.04
65718;BME280;52445;52.466;-1.016;2023-05-09T05:15:23;99695.22;;;13.23;78.08
65718;BME280;52445;52.466;-1.016;2023-05-09T05:17:49;99707.25;;;13.29;78.42
65718;BME280;52445;52.466;-1.016;2023-05-09T05:20:16;99704.53;;;13.35;78.17
65718;BME280;52445;52.466;-1.016;2023-05-09T05:22:43;99701.75;;;13.43;78.38
65718;BME280;52445;52.466;-1.016;2023-05-09T05:25:10;99704.25;;;13.51;78.15
65718;BME280;52445;52.466;-1.016;2023-05-09T05:27:37;99701.47;;;13.58;78.59
65718;BME280;52445;52.466;-1.016;2023-05-09T05:30:04;99703.06;;;13.66;78.12
65718;BME280;52445;52.466;-1.016;2023-05-09T05:32:30;99707.31;;;13.70;78.59
65718;BME280;52445;52.466;-1.016;2023-05-09T05:34:57;99702.13;;;13.70;78.71
65718;BME280;52445;52.466;-1.016;2023-05-09T05:37:23;99701.25;;;13.71;78.57
65718;BME280;52445;52.466;-1.016;2023-05-09T05:39:50;99696.03;;;13.71;78.12
65718;BME280;52445;52.466;-1.016;2023-05-09T05:42:17;99701.25;;;13.71;77.87
65718;BME280;52445;52.466;-1.016;2023-05-09T05:44:43;99694.31;;;13.70;77.98
65718;BME280;52445;52.466;-1.016;2023-05-09T05:47:10;99701.25;;;13.71;78.23
65718;BME280;52445;52.466;-1.016;2023-05-09T05:49:37;99696.03;;;13.71;77.90
65718;BME280;52445;52.466;-1.016;2023-05-09T05:52:04;99696.88;;;13.71;78.84
65718;BME280;52445;52.466;-1.016;2023-05-09T05:54:30;99689.91;;;13.73;78.25
65718;BME280;52445;52.466;-1.016;2023-05-09T05:56:57;99695.97;;;13.74;78.45
65718;BME280;52445;52.466;-1.016;2023-05-09T05:59:23;99697.69;;;13.75;78.81
65718;BME280;52445;52.466;-1.016;2023-05-09T06:01:50;99695.97;;;13.74;78.50
65718;BME280;52445;52.466;-1.016;2023-05-09T06:04:17;99702.91;;;13.75;78.40
65718;BME280;52445;52.466;-1.016;2023-05-09T06:06:44;99697.69;;;13.75;78.73
65718;BME280;52445;52.466;-1.016;2023-05-09T06:09:11;99693.31;;;13.75;78.68
65718;BME280;52445;52.466;-1.016;2023-05-09T06:11:37;99698.53;;;13.75;78.23
65718;BME280;52445;52.466;-1.016;2023-05-09T06:14:04;99697.59;;;13.78;78.87
65718;BME280;52445;52.466;-1.016;2023-05-09T06:16:31;99701.03;;;13.80;77.85
65718;BME280;52445;52.466;-1.016;2023-05-09T06:18:58;99700.97;;;13.83;77.88
65718;BME280;52445;52.466;-1.016;2023-05-09T06:21:24;99692.22;;;13.87;78.57
65718;BME280;52445;52.466;-1.016;2023-05-09T06:23:51;99692.97;;;13.91;78.37
65718;BME280;52445;52.466;-1.016;2023-05-09T06:26:21;99695.44;;;13.99;78.10
65718;BME280;52445;52.466;-1.016;2023-05-09T06:28:47;99699.63;;;14.06;78.54
65718;BME280;52445;52.466;-1.016;2023-05-09T06:31:14;99696.88;;;14.11;78.10
65718;BME280;52445;52.466;-1.016;2023-05-09T06:33:40;99703.69;;;14.17;78.34
65718;BME280;52445;52.466;-1.016;2023-05-09T06:36:07;99707.88;;;14.24;78.57
65718;BME280;52445;52.466;-1.016;2023-05-09T06:38:34;99708.69;;;14.27;78.00
65718;BME280;52445;52.466;-1.016;2023-05-09T06:41:00;99701.63;;;14.31;78.06
65718;BME280;52445;52.466;-1.016;2023-05-09T06:43:27;99697.19;;;14.35;77.78
65718;BME280;52445;52.466;-1.016;2023-05-09T06:45:53;99689.25;;;14.41;77.96
65718;BME280;52445;52.466;-1.016;2023-05-09T06:48:20;99690.09;;;14.42;77.74
65718;BME280;52445;52.466;-1.016;2023-05-09T06:50:49;99689.19;;;14.43;77.59
65718;BME280;52445;52.466;-1.016;2023-05-09T06:53:15;99677.06;;;14.42;78.05
65718;BME280;52445;52.466;-1.016;2023-05-09T06:55:42;99683.94;;;14.46;77.70
65718;BME280;52445;52.466;-1.016;2023-05-09T06:58:09;99687.34;;;14.48;78.17
65718;BME280;52445;52.466;-1.016;2023-05-09T07:00:36;99684.66;;;14.51;77.47
65718;BME280;52445;52.466;-1.016;2023-05-09T07:03:03;99687.19;;;14.54;77.64
65718;BME280;52445;52.466;-1.016;2023-05-09T07:05:33;99689.72;;;14.57;77.55
65718;BME280;52445;52.466;-1.016;2023-05-09T07:08:00;99690.53;;;14.59;77.50
65718;BME280;52445;52.466;-1.016;2023-05-09T07:10:27;99690.53;;;14.59;77.04
65718;BME280;52445;52.466;-1.016;2023-05-09T07:12:53;99691.31;;;14.63;77.13
65718;BME280;52445;52.466;-1.016;2023-05-09T07:15:20;99687.78;;;14.65;77.57
65718;BME280;52445;52.466;-1.016;2023-05-09T07:18:06;99679.03;;;14.68;76.92
65718;BME280;52445;52.466;-1.016;2023-05-09T07:20:33;99684.16;;;14.71;77.38
65718;BME280;52445;52.466;-1.016;2023-05-09T07:22:59;99687.50;;;14.76;77.35
65718;BME280;52445;52.466;-1.016;2023-05-09T07:25:27;99679.59;;;14.81;77.17
65718;BME280;52445;52.466;-1.016;2023-05-09T07:27:54;99684.66;;;14.87;77.05
65718;BME280;52445;52.466;-1.016;2023-05-09T07:30:21;99681.91;;;14.92;76.56
65718;BME280;52445;52.466;-1.016;2023-05-09T07:32:47;99686.13;;;14.96;76.51
65718;BME280;52445;52.466;-1.016;2023-05-09T07:35:14;99679.09;;;15.00;76.83
65718;BME280;52445;52.466;-1.016;2023-05-09T07:37:41;99685.97;;;15.02;76.72
65718;BME280;52445;52.466;-1.016;2023-05-09T07:40:08;99691.97;;;15.06;76.75
65718;BME280;52445;52.466;-1.016;2023-05-09T07:42:35;99682.34;;;15.08;76.50
65718;BME280;52445;52.466;-1.016;2023-05-09T07:45:03;99685.69;;;15.13;76.82
65718;BME280;52445;52.466;-1.016;2023-05-09T07:47:32;99688.94;;;15.22;76.54
65718;BME280;52445;52.466;-1.016;2023-05-09T07:49:58;99688.78;;;15.28;76.35
65718;BME280;52445;52.466;-1.016;2023-05-09T07:52:25;99693.91;;;15.31;76.56
65718;BME280;52445;52.466;-1.016;2023-05-09T07:54:51;99692.91;;;15.35;76.65
65718;BME280;52445;52.466;-1.016;2023-05-09T07:57:20;99691.03;;;15.40;76.76
65718;BME280;52445;52.466;-1.016;2023-05-09T07:59:46;99695.22;;;15.46;76.03
65718;BME280;52445;52.466;-1.016;2023-05-09T08:02:13;99696.78;;;15.52;76.09
65718;BME280;52445;52.466;-1.016;2023-05-09T08:04:41;99700.22;;;15.54;75.92
65718;BME280;52445;52.466;-1.016;2023-05-09T08:07:08;99700.13;;;15.57;75.89
65718;BME280;52445;52.466;-1.016;2023-05-09T08:09:34;99688.72;;;15.61;75.23
65718;BME280;52445;52.466;-1.016;2023-05-09T08:12:01;99691.13;;;15.67;75.35
65718;BME280;52445;52.466;-1.016;2023-05-09T08:14:30;99689.13;;;15.76;75.86
65718;BME280;52445;52.466;-1.016;2023-05-09T08:16:57;99682.03;;;15.81;75.24
65718;BME280;52445;52.466;-1.016;2023-05-09T08:19:24;99678.31;;;15.88;75.62
65718;BME280;52445;52.466;-1.016;2023-05-09T08:21:51;99669.50;;;15.92;75.26
65718;BME280;52445;52.466;-1.016;2023-05-09T08:24:18;99669.41;;;15.96;74.89
65718;BME280;52445;52.466;-1.016;2023-05-09T08:26:46;99662.41;;;15.98;75.05
65718;BME280;52445;52.466;-1.016;2023-05-09T08:29:14;99662.41;;;15.98;74.71
65718;BME280;52445;52.466;-1.016;2023-05-09T08:31:43;99658.03;;;15.98;74.92
65718;BME280;52445;52.466;-1.016;2023-05-09T08:34:10;99664.97;;;15.99;74.13
65718;BME280;52445;52.466;-1.016;2023-05-09T08:36:38;99650.13;;;16.00;73.97
65718;BME280;52445;52.466;-1.016;2023-05-09T08:39:06;99643.13;;;16.02;74.22
65718;BME280;52445;52.466;-1.016;2023-05-09T08:41:33;99639.50;;;16.06;74.26
65718;BME280;52445;52.466;-1.016;2023-05-09T08:44:02;99635.94;;;16.09;73.00
65718;BME280;52445;52.466;-1.016;2023-05-09T08:46:36;99634.09;;;16.12;73.77
65718;BME280;52445;52.466;-1.016;2023-05-09T08:49:04;99637.59;;;16.11;73.11
65718;BME280;52445;52.466;-1.016;2023-05-09T08:51:34;99643.69;;;16.12;71.93
65718;BME280;52445;52.466;-1.016;2023-05-09T08:54:02;99649.63;;;16.15;72.63
65718;BME280;52445;52.466;-1.016;2023-05-09T08:56:30;99646.94;;;16.18;72.32
65718;BME280;52445;52.466;-1.016;2023-05-09T08:59:05;99636.66;;;16.14;71.99
65718;BME280;52445;52.466;-1.016;2023-05-09T09:01:34;99639.28;;;16.14;71.45
65718;BME280;52445;52.466;-1.016;2023-05-09T09:04:07;99633.19;;;16.13;71.81
65718;BME280;52445;52.466;-1.016;2023-05-09T09:06:38;99640.94;;;16.16;71.81
65718;BME280;52445;52.466;-1.016;2023-05-09T09:09:06;99632.16;;;16.17;72.18
65718;BME280;52445;52.466;-1.016;2023-05-09T09:11:35;99633.88;;;16.18;71.42
65718;BME280;52445;52.466;-1.016;2023-05-09T09:16:56;99631.44;;;16.14;71.58
65718;BME280;52445;52.466;-1.016;2023-05-09T09:19:28;99627.03;;;16.14;71.42
65718;BME280;52445;52.466;-1.016;2023-05-09T09:21:59;99630.47;;;16.16;71.57
65718;BME280;52445;52.466;-1.016;2023-05-09T09:24:28;99632.06;;;16.21;71.43
65718;BME280;52445;52.466;-1.016;2023-05-09T09:26:56;99631.84;;;16.27;71.84
65718;BME280;52445;52.466;-1.016;2023-05-09T09:29:25;99633.38;;;16.34;72.55
65718;BME280;52445;52.466;-1.016;2023-05-09T09:31:56;99637.59;;;16.38;72.11
65718;BME280;52445;52.466;-1.016;2023-05-09T09:34:23;99639.19;;;16.42;71.39
65718;BME280;52445;52.466;-1.016;2023-05-09T09:36:50;99633.81;;;16.47;70.94
65718;BME280;52445;52.466;-1.016;2023-05-09T09:39:18;99638.06;;;16.50;71.05
65718;BME280;52445;52.466;-1.016;2023-05-09T09:41:47;99633.66;;;16.52;71.24
65718;BME280;52445;52.466;-1.016;2023-05-09T09:44:17;99632.75;;;16.53;70.64
65718;BME280;52445;52.466;-1.016;2023-05-09T09:49:24;99624.84;;;16.80;68.63
65718;BME280;52445;52.466;-1.016;2023-05-09T09:51:55;99633.22;;;16.64;70.49
65718;BME280;52445;52.466;-1.016;2023-05-09T09:54:25;99634.06;;;16.66;70.20
65718;BME280;52445;52.466;-1.016;2023-05-09T09:56:55;99630.41;;;16.70;70.05
65718;BME280;52445;52.466;-1.016;2023-05-09T09:59:23;99635.41;;;16.77;70.33
65718;BME280;52445;52.466;-1.016;2023-05-09T10:04:32;99635.56;;;16.98;70.64
65718;BME280;52445;52.466;-1.016;2023-05-09T10:07:01;99641.28;;;17.09;70.20
65718;BME280;52445;52.466;-1.016;2023-05-09T10:09:31;99639.25;;;17.17;69.49
65718;BME280;52445;52.466;-1.016;2023-05-09T10:12:03;99639.88;;;17.24;70.07
65718;BME280;52445;52.466;-1.016;2023-05-09T10:14:32;99642.56;;;17.23;68.82
65718;BME280;52445;52.466;-1.016;2023-05-09T10:17:02;99634.69;;;17.23;69.33
65718;BME280;52445;52.466;-1.016;2023-05-09T10:19:33;99640.78;;;17.23;69.33
65718;BME280;52445;52.466;-1.016;2023-05-09T10:22:04;99639.25;;;17.17;68.93
65718;BME280;52445;52.466;-1.016;2023-05-09T10:27:11;99640.97;;;17.18;69.16
65718;BME280;52445;52.466;-1.016;2023-05-09T10:29:44;99637.22;;;17.26;69.52
65718;BME280;52445;52.466;-1.016;2023-05-09T10:32:16;99642.09;;;17.35;69.30
65718;BME280;52445;52.466;-1.016;2023-05-09T10:34:47;99636.53;;;17.44;69.34
65718;BME280;52445;52.466;-1.016;2023-05-09T10:37:14;99632.63;;;17.55;69.03
65718;BME280;52445;52.466;-1.016;2023-05-09T10:39:42;99621.66;;;17.67;68.81
65718;BME280;52445;52.466;-1.016;2023-05-09T10:42:11;99629.19;;;17.77;68.46
65718;BME280;52445;52.466;-1.016;2023-05-09T10:44:38;99624.38;;;17.88;68.90
65718;BME280;52445;52.466;-1.016;2023-05-09T10:47:05;99620.59;;;17.95;68.34
65718;BME280;52445;52.466;-1.016;2023-05-09T10:49:32;99622.06;;;18.03;67.65
65718;BME280;52445;52.466;-1.016;2023-05-09T10:52:02;99613.03;;;18.10;68.41
65718;BME280;52445;52.466;-1.016;2023-05-09T10:54:30;99617.78;;;18.22;67.76
65718;BME280;52445;52.466;-1.016;2023-05-09T10:56:59;99608.34;;;18.39;67.83
65718;BME280;52445;52.466;-1.016;2023-05-09T11:02:12;99597.59;;;18.66;66.63
65718;BME280;52445;52.466;-1.016;2023-05-09T11:04:39;99599.34;;;18.86;66.73
65718;BME280;52445;52.466;-1.016;2023-05-09T11:07:24;99597.66;;;19.05;66.16
65718;BME280;52445;52.466;-1.016;2023-05-09T11:10:13;99587.13;;;19.25;65.62
65718;BME280;52445;52.466;-1.016;2023-05-09T11:12:58;99581.00;;;19.44;65.46
65718;BME280;52445;52.466;-1.016;2023-05-09T11:15:26;99585.66;;;19.57;64.26
65718;BME280;52445;52.466;-1.016;2023-05-09T11:18:13;99581.69;;;19.67;64.31
65718;BME280;52445;52.466;-1.016;2023-05-09T11:20:42;99580.31;;;19.77;64.20
65718;BME280;52445;52.466;-1.016;2023-05-09T11:23:09;99573.53;;;19.91;63.80
65718;BME280;52445;52.466;-1.016;2023-05-09T11:25:38;99567.38;;;20.10;63.71
65718;BME280;52445;52.466;-1.016;2023-05-09T11:28:05;99566.13;;;20.35;63.92
65718;BME280;52445;52.466;-1.016;2023-05-09T11:30:39;99561.00;;;20.67;63.91
65718;BME280;52445;52.466;-1.016;2023-05-09T11:33:21;99566.34;;;20.99;63.10
65718;BME280;52445;52.466;-1.016;2023-05-09T11:38:59;99556.16;;;21.25;59.86
65718;BME280;52445;52.466;-1.016;2023-05-09T11:41:28;99554.44;;;21.24;58.78
65718;BME280;52445;52.466;-1.016;2023-05-09T11:43:55;99555.06;;;21.29;58.98
65718;BME280;52445;52.466;-1.016;2023-05-09T11:46:22;99541.53;;;21.36;59.51
65718;BME280;52445;52.466;-1.016;2023-05-09T11:48:49;99548.69;;;21.34;58.77
65718;BME280;52445;52.466;-1.016;2023-05-09T11:51:17;99548.16;;;21.27;58.66
65718;BME280;52445;52.466;-1.016;2023-05-09T11:53:45;99543.16;;;21.22;58.15
65718;BME280;52445;52.466;-1.016;2023-05-09T11:56:15;99535.25;;;21.22;58.74
65718;BME280;52445;52.466;-1.016;2023-05-09T11:58:42;99544.59;;;21.12;57.33
65718;BME280;52445;52.466;-1.016;2023-05-09T12:01:10;99538.66;;;21.08;57.56
65718;BME280;52445;52.466;-1.016;2023-05-09T12:03:43;99540.34;;;21.09;57.70
65718;BME280;52445;52.466;-1.016;2023-05-09T12:06:18;99530.69;;;21.10;58.05
65718;BME280;52445;52.466;-1.016;2023-05-09T12:08:45;99529.75;;;21.11;58.25
65718;BME280;52445;52.466;-1.016;2023-05-09T12:11:13;99532.28;;;21.12;58.21
65718;BME280;52445;52.466;-1.016;2023-05-09T12:13:45;99531.44;;;21.12;58.41
65718;BME280;52445;52.466;-1.016;2023-05-09T12:16:12;99525.31;;;21.11;58.93
65718;BME280;52445;52.466;-1.016;2023-05-09T12:18:45;99530.91;;;21.21;59.49
65718;BME280;52445;52.466;-1.016;2023-05-09T12:21:12;99524.56;;;21.25;59.17
65718;BME280;52445;52.466;-1.016;2023-05-09T12:23:39;99517.41;;;21.27;58.58
65718;BME280;52445;52.466;-1.016;2023-05-09T12:26:07;99512.72;;;21.32;58.81
65718;BME280;52445;52.466;-1.016;2023-05-09T12:28:35;99501.06;;;21.37;58.19
65718;BME280;52445;52.466;-1.016;2023-05-09T12:31:05;99513.25;;;21.39;57.72
65718;BME280;52445;52.466;-1.016;2023-05-09T12:33:36;99516.72;;;21.40;58.13
65718;BME280;52445;52.466;-1.016;2023-05-09T12:36:07;99508.22;;;21.35;58.16
65718;BME280;52445;52.466;-1.016;2023-05-09T12:38:36;99511.19;;;21.28;58.75
65718;BME280;52445;52.466;-1.016;2023-05-09T12:41:05;99510.63;;;21.23;58.74
65718;BME280;52445;52.466;-1.016;2023-05-09T12:43:47;99500.34;;;21.18;58.92
65718;BME280;52445;52.466;-1.016;2023-05-09T12:46:18;99504.00;;;21.16;58.96
65718;BME280;52445;52.466;-1.016;2023-05-09T12:48:45;99490.25;;;21.11;59.15
65718;BME280;52445;52.466;-1.016;2023-05-09T12:51:18;99493.72;;;21.11;59.34
65718;BME280;52445;52.466;-1.016;2023-05-09T12:53:45;99492.44;;;21.18;59.82
65718;BME280;52445;52.466;-1.016;2023-05-09T12:56:16;99492.59;;;21.31;60.18
65718;BME280;52445;52.466;-1.016;2023-05-09T12:58:59;99486.44;;;21.47;60.69
65718;BME280;52445;52.466;-1.016;2023-05-09T13:01:27;99485.94;;;21.56;60.74
65718;BME280;52445;52.466;-1.016;2023-05-09T13:04:10;99482.28;;;21.90;61.20
65718;BME280;52445;52.466;-1.016;2023-05-09T13:06:47;99482.69;;;22.13;59.75
65718;BME280;52445;52.466;-1.016;2023-05-09T13:09:17;99480.06;;;22.27;58.76
65718;BME280;52445;52.466;-1.016;2023-05-09T13:11:45;99477.81;;;22.36;58.04
65718;BME280;52445;52.466;-1.016;2023-05-09T13:14:14;99484.59;;;22.40;57.16
65718;BME280;52445;52.466;-1.016;2023-05-09T13:16:43;99487.31;;;22.38;57.72
65718;BME280;52445;52.466;-1.016;2023-05-09T13:19:09;99495.91;;;22.27;56.42
65718;BME280;52445;52.466;-1.016;2023-05-09T13:21:36;99489.84;;;22.11;57.01
65718;BME280;52445;52.466;-1.016;2023-05-09T13:24:04;99490.75;;;21.95;56.59
65718;BME280;52445;52.466;-1.016;2023-05-09T13:26:31;99488.31;;;21.92;56.94